Time;durP1;ratioP1;P1;durP2;ratioP2;P2;SDS_P1;SDS_P2;PMS_P1;PMS_P2;Temp;Humidity;BMP_temperature;BMP_pressure;BME280_temperature;BME280_humidity;BME280_pressure;Samples;Min_cycle;Max_cycle;Signal;HPM_P1;HPM_P2
2021/11/05 00:00:09;;;;;;;6.82;5.50;;;6.10;98.70;;;;;;4990711;28;20030;-77
2021/11/05 00:02:34;;;;;;;9.13;5.93;;;6.10;98.70;;;;;;4964642;28;20038;-77
2021/11/05 00:05:00;;;;;;;11.82;6.05;;;6.10;98.70;;;;;;4984533;28;20263;-77
2021/11/05 00:07:26;;;;;;;7.53;6.22;;;6.10;98.70;;;;;;4962787;28;20026;-77
2021/11/05 00:09:51;;;;;;;8.98;6.10;;;6.10;98.70;;;;;;4990857;28;20025;-77
2021/11/05 00:12:17;;;;;;;10.27;5.53;;;6.10;98.70;;;;;;4990326;28;20402;-77
2021/11/05 00:14:43;;;;;;;7.55;5.35;;;6.10;98.80;;;;;;4977813;28;20026;-78
2021/11/05 00:17:09;;;;;;;10.40;6.18;;;6.10;98.70;;;;;;4959715;28;20125;-77
2021/11/05 00:19:34;;;;;;;9.82;5.90;;;6.10;98.80;;;;;;4975765;28;20023;-77
2021/11/05 00:22:00;;;;;;;8.38;6.15;;;6.10;98.80;;;;;;4984404;28;20368;-77
2021/11/05 00:24:26;;;;;;;9.20;6.43;;;6.10;98.80;;;;;;4977727;28;20027;-77
2021/11/05 00:26:51;;;;;;;7.82;6.45;;;6.10;98.70;;;;;;4969838;28;20483;-77
2021/11/05 00:29:17;;;;;;;8.68;6.03;;;6.10;98.70;;;;;;4967984;28;20155;-78
2021/11/05 00:31:42;;;;;;;9.82;6.00;;;6.10;98.70;;;;;;4954376;28;20041;-77
2021/11/05 00:34:08;;;;;;;8.77;6.32;;;6.10;98.80;;;;;;4987592;28;20034;-77
2021/11/05 00:36:34;;;;;;;7.60;6.47;;;6.10;98.80;;;;;;4986877;28;20103;-78
2021/11/05 00:38:59;;;;;;;9.90;6.40;;;6.10;98.80;;;;;;4964945;28;20023;-77
2021/11/05 00:41:25;;;;;;;8.40;6.15;;;6.10;98.70;;;;;;4972651;28;20158;-77
2021/11/05 00:43:50;;;;;;;8.25;5.68;;;6.10;98.70;;;;;;4966967;28;20031;-77
2021/11/05 00:46:16;;;;;;;8.80;5.95;;;6.00;98.70;;;;;;4984446;28;20391;-77
2021/11/05 00:48:42;;;;;;;7.05;5.85;;;6.00;98.80;;;;;;4963482;28;20504;-78
2021/11/05 00:51:07;;;;;;;8.02;5.72;;;6.00;98.80;;;;;;4959942;28;20399;-78
2021/11/05 00:53:33;;;;;;;8.85;5.55;;;6.00;98.80;;;;;;4989176;28;20034;-77
2021/11/05 00:55:59;;;;;;;7.93;5.80;;;6.00;98.80;;;;;;4960373;28;20034;-77
2021/11/05 00:58:24;;;;;;;8.68;6.05;;;6.10;98.90;;;;;;4990217;28;20157;-77
2021/11/05 01:00:50;;;;;;;6.75;5.43;;;6.00;98.80;;;;;;4972498;28;20057;-77
2021/11/05 01:03:16;;;;;;;8.93;5.75;;;6.00;98.80;;;;;;4971573;28;20031;-77
2021/11/05 01:05:41;;;;;;;8.05;6.13;;;6.00;98.90;;;;;;4972653;28;20030;-78
2021/11/05 01:08:08;;;;;;;8.30;5.95;;;6.00;98.90;;;;;;4967707;28;20478;-77
2021/11/05 01:10:37;;;;;;;7.57;6.18;;;6.00;98.90;;;;;;4981930;28;20549;-77
2021/11/05 01:13:07;;;;;;;8.20;6.57;;;6.00;98.90;;;;;;4985781;28;20121;-77
2021/11/05 01:15:33;;;;;;;8.55;5.88;;;6.00;98.90;;;;;;4979860;28;20033;-77
2021/11/05 01:17:59;;;;;;;9.23;6.85;;;6.00;98.90;;;;;;4972570;28;20097;-77
2021/11/05 01:20:25;;;;;;;9.68;6.53;;;6.00;98.90;;;;;;4958715;28;20126;-77
2021/11/05 01:22:51;;;;;;;10.35;6.65;;;6.00;98.90;;;;;;4965861;28;20031;-77
2021/11/05 01:25:17;;;;;;;10.27;6.65;;;6.00;99.00;;;;;;4989956;28;20661;-77
2021/11/05 01:27:44;;;;;;;9.75;7.05;;;6.00;99.00;;;;;;4960533;28;20043;-77
2021/11/05 01:30:10;;;;;;;13.60;7.18;;;6.00;99.00;;;;;;4954522;28;20022;-77
2021/11/05 01:32:37;;;;;;;7.57;6.03;;;6.00;99.00;;;;;;4955985;28;20090;-77
2021/11/05 01:35:04;;;;;;;8.65;5.82;;;6.00;99.00;;;;;;4956152;28;20053;-77
2021/11/05 01:37:30;;;;;;;8.20;6.40;;;6.00;99.00;;;;;;4986709;28;20026;-77
2021/11/05 01:39:56;;;;;;;8.20;6.40;;;5.90;98.90;;;;;;4991760;28;20023;-77
2021/11/05 01:42:21;;;;;;;8.23;6.10;;;5.90;99.00;;;;;;4969219;28;20250;-77
2021/11/05 01:44:47;;;;;;;10.05;7.10;;;5.90;99.00;;;;;;4970492;28;20026;-77
2021/11/05 01:47:13;;;;;;;9.32;6.70;;;5.90;99.10;;;;;;4974086;28;20407;-76
2021/11/05 01:49:38;;;;;;;8.77;6.68;;;5.90;99.00;;;;;;4956419;28;20486;-77
2021/11/05 01:52:05;;;;;;;8.27;6.50;;;5.90;99.10;;;;;;4971831;28;20461;-77
2021/11/05 01:54:31;;;;;;;9.70;6.70;;;5.90;99.10;;;;;;4980125;28;20760;-77
2021/11/05 01:56:57;;;;;;;8.35;5.97;;;5.90;99.10;;;;;;4993505;28;20038;-77
2021/11/05 01:59:29;;;;;;;7.60;5.93;;;5.90;99.10;;;;;;4972025;28;20387;-77
2021/11/05 02:01:56;;;;;;;8.27;6.47;;;5.90;99.10;;;;;;4992414;28;20026;-77
2021/11/05 02:04:22;;;;;;;9.35;6.72;;;5.90;99.10;;;;;;4974408;28;20041;-77
2021/11/05 02:06:50;;;;;;;7.95;6.05;;;5.90;99.10;;;;;;4992599;28;20027;-77
2021/11/05 02:09:22;;;;;;;7.57;6.22;;;5.90;99.20;;;;;;4974914;28;20108;-77
2021/11/05 02:11:49;;;;;;;8.67;6.30;;;5.90;99.20;;;;;;4993016;28;20438;-77
2021/11/05 02:14:17;;;;;;;8.00;6.10;;;5.90;99.20;;;;;;4987863;28;20038;-76
2021/11/05 02:16:45;;;;;;;8.73;6.38;;;5.90;99.20;;;;;;4974862;28;20352;-77
2021/11/05 02:19:14;;;;;;;9.88;6.50;;;5.90;99.20;;;;;;4974095;28;20027;-77
2021/11/05 02:21:45;;;;;;;7.72;6.28;;;5.90;99.20;;;;;;4991980;28;20019;-77
2021/11/05 02:24:12;;;;;;;8.63;6.63;;;5.80;99.20;;;;;;4989365;28;20077;-76
2021/11/05 02:26:39;;;;;;;8.23;6.60;;;5.90;99.20;;;;;;4975044;28;20026;-76
2021/11/05 02:29:05;;;;;;;8.50;6.45;;;5.80;99.30;;;;;;4967778;28;20061;-76
2021/11/05 02:31:31;;;;;;;8.73;6.60;;;5.90;99.30;;;;;;4963751;28;20081;-77
2021/11/05 02:33:58;;;;;;;10.02;6.60;;;5.90;99.30;;;;;;4973102;28;20034;-76
2021/11/05 02:36:24;;;;;;;10.07;7.40;;;5.90;99.30;;;;;;4973547;28;20030;-76
2021/11/05 02:38:50;;;;;;;9.82;7.57;;;5.90;99.30;;;;;;4973942;28;20022;-76
2021/11/05 02:41:15;;;;;;;9.93;7.40;;;5.90;99.30;;;;;;4992376;28;20018;-76
2021/11/05 02:43:41;;;;;;;9.82;7.07;;;5.80;99.20;;;;;;4966397;28;20026;-76
2021/11/05 02:46:07;;;;;;;10.18;7.70;;;5.80;99.30;;;;;;4986714;28;20478;-76
2021/11/05 02:48:33;;;;;;;10.02;7.63;;;5.80;99.30;;;;;;4970516;28;20570;-76
2021/11/05 02:51:00;;;;;;;12.20;7.15;;;5.80;99.30;;;;;;4959187;28;20056;-77
2021/11/05 02:53:26;;;;;;;10.65;7.53;;;5.80;99.30;;;;;;4978000;28;20018;-77
2021/11/05 02:55:52;;;;;;;10.68;7.57;;;5.90;99.40;;;;;;4974125;28;20026;-76
2021/11/05 02:58:18;;;;;;;9.13;6.78;;;5.90;99.40;;;;;;4960805;28;20038;-76
2021/11/05 03:00:45;;;;;;;10.05;6.80;;;5.80;99.40;;;;;;4974390;28;20431;-76
2021/11/05 03:03:13;;;;;;;9.90;7.07;;;5.80;99.30;;;;;;4989980;28;20045;-76
2021/11/05 03:05:39;;;;;;;8.57;7.07;;;5.80;99.30;;;;;;4988289;28;20031;-76
2021/11/05 03:08:05;;;;;;;8.73;6.60;;;5.80;99.40;;;;;;4974812;28;20505;-76
2021/11/05 03:10:35;;;;;;;8.63;6.55;;;5.80;99.40;;;;;;4984835;28;20030;-77
2021/11/05 03:13:01;;;;;;;7.97;5.90;;;5.80;99.40;;;;;;4986095;28;20042;-76
2021/11/05 03:15:27;;;;;;;8.02;5.97;;;5.80;99.40;;;;;;4990781;28;20034;-76
2021/11/05 03:17:54;;;;;;;7.97;6.35;;;5.70;99.40;;;;;;4987351;28;20023;-76
2021/11/05 03:20:20;;;;;;;8.10;5.82;;;5.70;99.40;;;;;;4973989;28;20149;-77
2021/11/05 03:22:47;;;;;;;7.53;6.15;;;5.80;99.50;;;;;;4975610;28;20022;-76
2021/11/05 03:25:13;;;;;;;9.93;6.00;;;5.80;99.50;;;;;;4972256;28;20037;-76
2021/11/05 03:27:39;;;;;;;9.15;6.63;;;5.80;99.50;;;;;;4954958;28;20022;-76
2021/11/05 03:30:07;;;;;;;6.90;5.85;;;5.80;99.50;;;;;;4988543;28;20077;-76
2021/11/05 03:32:34;;;;;;;9.45;6.15;;;5.80;99.60;;;;;;4994242;28;20089;-76
2021/11/05 03:35:00;;;;;;;8.82;5.85;;;5.80;99.60;;;;;;4986334;28;20114;-76
2021/11/05 03:37:25;;;;;;;8.48;6.20;;;5.80;99.60;;;;;;4978812;28;20101;-76
2021/11/05 03:39:51;;;;;;;6.22;5.35;;;5.80;99.60;;;;;;4991611;28;20023;-76
2021/11/05 03:42:17;;;;;;;8.63;5.70;;;5.80;99.50;;;;;;4972653;28;20030;-76
2021/11/05 03:44:43;;;;;;;6.53;5.32;;;5.80;99.50;;;;;;4972678;28;20026;-75
2021/11/05 03:47:09;;;;;;;7.80;5.57;;;5.80;99.60;;;;;;4991770;28;20030;-76
2021/11/05 03:49:34;;;;;;;8.15;5.72;;;5.80;99.60;;;;;;4974425;28;20026;-75
2021/11/05 03:52:00;;;;;;;8.73;5.85;;;5.80;99.60;;;;;;4981809;28;20026;-76
2021/11/05 03:54:26;;;;;;;6.25;5.07;;;5.80;99.50;;;;;;4973932;28;20038;-77
2021/11/05 03:56:51;;;;;;;5.85;5.25;;;5.80;99.60;;;;;;4955393;28;20031;-76
2021/11/05 03:59:17;;;;;;;7.45;5.80;;;5.80;99.80;;;;;;4954263;28;20185;-76
2021/11/05 04:01:43;;;;;;;6.95;5.45;;;5.80;99.60;;;;;;4972320;28;20028;-76
2021/11/05 04:04:10;;;;;;;6.82;5.65;;;5.80;99.60;;;;;;4967938;28;20023;-76
2021/11/05 04:06:36;;;;;;;8.65;6.30;;;5.80;99.70;;;;;;4959096;28;20030;-77
2021/11/05 04:09:02;;;;;;;7.07;5.68;;;5.80;99.70;;;;;;4984923;28;20030;-76
2021/11/05 04:11:27;;;;;;;7.38;5.97;;;5.80;99.60;;;;;;4973602;28;20069;-76
2021/11/05 04:13:53;;;;;;;7.90;6.28;;;5.80;99.60;;;;;;4983182;28;20064;-76
2021/11/05 04:16:19;;;;;;;8.55;6.30;;;5.80;99.60;;;;;;4993932;28;20091;-76
2021/11/05 04:18:44;;;;;;;9.05;6.35;;;5.80;99.60;;;;;;4965274;28;20033;-76
2021/11/05 04:21:10;;;;;;;8.38;6.45;;;5.80;99.70;;;;;;4981157;28;20522;-76
2021/11/05 04:23:36;;;;;;;8.02;6.60;;;5.80;99.70;;;;;;4974036;28;20031;-77
2021/11/05 04:26:03;;;;;;;9.40;6.05;;;5.80;99.70;;;;;;4963611;28;20093;-76
2021/11/05 04:28:29;;;;;;;8.77;6.57;;;5.80;99.80;;;;;;4983439;28;20034;-76
2021/11/05 04:30:55;;;;;;;8.63;6.60;;;5.80;99.80;;;;;;4990406;28;20030;-76
2021/11/05 04:33:20;;;;;;;9.88;7.35;;;5.80;99.80;;;;;;4977600;28;20035;-76
2021/11/05 04:35:47;;;;;;;9.75;6.90;;;5.90;99.80;;;;;;4953650;28;20034;-76
2021/11/05 04:38:13;;;;;;;7.90;6.68;;;5.90;99.80;;;;;;4984302;28;20026;-76
2021/11/05 04:40:39;;;;;;;9.38;7.18;;;5.90;99.90;;;;;;4980049;28;20037;-76
2021/11/05 04:43:05;;;;;;;10.07;7.13;;;5.90;99.90;;;;;;4968032;28;20034;-76
2021/11/05 04:45:31;;;;;;;8.90;7.22;;;5.90;99.90;;;;;;4970905;28;20113;-76
2021/11/05 04:47:56;;;;;;;8.85;7.18;;;6.00;99.90;;;;;;4973157;28;20018;-76
2021/11/05 04:50:22;;;;;;;10.50;6.80;;;5.90;99.80;;;;;;4987526;28;20034;-76
2021/11/05 04:52:48;;;;;;;9.23;7.40;;;5.90;99.80;;;;;;5001540;28;20026;-76
2021/11/05 04:55:16;;;;;;;10.38;7.57;;;5.90;99.80;;;;;;4990893;28;20114;-76
2021/11/05 04:57:43;;;;;;;10.13;7.30;;;5.90;99.90;;;;;;4989363;28;20022;-76
2021/11/05 05:00:09;;;;;;;8.48;6.65;;;5.90;99.90;;;;;;4988338;28;20185;-76
2021/11/05 05:02:35;;;;;;;10.43;7.38;;;5.90;99.80;;;;;;4975808;28;20022;-77
2021/11/05 05:05:02;;;;;;;10.20;7.55;;;5.90;99.80;;;;;;4960017;28;20086;-76
2021/11/05 05:07:28;;;;;;;9.02;7.40;;;5.90;99.80;;;;;;4979430;28;20105;-76
2021/11/05 05:09:54;;;;;;;9.82;7.63;;;5.90;99.80;;;;;;4979757;28;20030;-76
2021/11/05 05:14:47;;;;;;;11.25;7.40;;;5.90;99.80;;;;;;4969637;28;20043;-69
2021/11/05 05:17:13;;;;;;;12.57;7.63;;;5.90;99.80;;;;;;4983211;28;20033;-71
2021/11/05 05:19:39;;;;;;;10.95;7.55;;;5.90;99.80;;;;;;4990889;28;20042;-69
2021/11/05 05:22:06;;;;;;;12.48;7.55;;;5.90;99.80;;;;;;4995354;28;20507;-71
2021/11/05 05:24:32;;;;;;;9.00;7.00;;;5.90;99.80;;;;;;4993205;28;20035;-69
2021/11/05 05:26:57;;;;;;;9.65;7.55;;;5.90;99.90;;;;;;4997052;28;20040;-69
2021/11/05 05:29:23;;;;;;;9.80;7.30;;;5.90;99.90;;;;;;5000816;28;20470;-71
2021/11/05 05:31:50;;;;;;;12.75;7.88;;;5.90;99.90;;;;;;4994620;28;20064;-69
2021/11/05 05:34:15;;;;;;;10.93;7.78;;;5.90;99.90;;;;;;4992765;28;20105;-73
2021/11/05 05:36:41;;;;;;;10.50;7.47;;;5.90;99.90;;;;;;4992255;28;20026;-69
2021/11/05 05:39:06;;;;;;;10.63;7.90;;;5.90;99.90;;;;;;5000340;28;20105;-69
2021/11/05 05:41:32;;;;;;;9.63;6.93;;;5.90;99.90;;;;;;5010913;28;20030;-70
2021/11/05 05:43:58;;;;;;;11.38;7.72;;;6.00;99.90;;;;;;4991621;28;20137;-73
2021/11/05 05:46:23;;;;;;;15.85;7.70;;;6.00;99.90;;;;;;4987952;28;20033;-72
2021/11/05 05:48:49;;;;;;;9.93;7.65;;;6.00;99.90;;;;;;4993230;28;20030;-69
2021/11/05 05:51:15;;;;;;;9.73;7.68;;;6.00;99.90;;;;;;4993147;28;20076;-70
2021/11/05 05:53:40;;;;;;;10.98;7.43;;;6.00;99.90;;;;;;5003265;28;20425;-70
2021/11/05 05:56:06;;;;;;;10.25;7.35;;;6.00;99.90;;;;;;4994949;28;20368;-70
2021/11/05 05:58:32;;;;;;;8.68;6.95;;;6.00;99.90;;;;;;4992564;28;20030;-70
2021/11/05 06:00:58;;;;;;;9.63;7.47;;;6.10;99.90;;;;;;4992754;28;20045;-73
2021/11/05 06:03:24;;;;;;;11.63;8.07;;;6.10;99.90;;;;;;4992041;28;20092;-72
2021/11/05 06:05:49;;;;;;;12.45;8.15;;;6.00;99.90;;;;;;4984664;28;20037;-69
2021/11/05 06:08:15;;;;;;;10.43;8.02;;;6.10;99.90;;;;;;4984644;28;20035;-69
2021/11/05 06:10:41;;;;;;;12.10;8.52;;;6.00;99.90;;;;;;4985611;28;20049;-71
2021/11/05 06:13:06;;;;;;;13.05;9.13;;;6.00;99.90;;;;;;4991390;28;20482;-72
2021/11/05 06:15:32;;;;;;;14.07;9.65;;;6.00;99.90;;;;;;4989383;28;20393;-69
2021/11/05 06:17:58;;;;;;;13.27;9.48;;;6.00;99.90;;;;;;4990517;28;20018;-70
2021/11/05 06:20:24;;;;;;;10.38;8.13;;;6.00;99.90;;;;;;4993577;28;20482;-70
2021/11/05 06:22:49;;;;;;;11.75;8.23;;;6.00;99.90;;;;;;4992347;28;20027;-69
2021/11/05 06:25:15;;;;;;;11.23;8.20;;;6.00;99.90;;;;;;4990467;28;20390;-69
2021/11/05 06:27:41;;;;;;;17.63;11.70;;;6.00;99.90;;;;;;4987529;28;20041;-71
2021/11/05 06:30:08;;;;;;;12.02;8.90;;;6.00;99.90;;;;;;4992019;28;20026;-71
2021/11/05 06:32:34;;;;;;;12.25;8.65;;;6.00;99.90;;;;;;4992405;28;20018;-72
2021/11/05 06:35:00;;;;;;;13.32;9.20;;;6.00;99.90;;;;;;5008008;28;20096;-69
2021/11/05 06:37:25;;;;;;;15.77;9.57;;;5.90;99.90;;;;;;4993007;28;20038;-70
2021/11/05 06:39:52;;;;;;;12.63;8.63;;;5.90;99.90;;;;;;4975489;28;20023;-70
2021/11/05 06:42:21;;;;;;;15.43;10.73;;;6.00;99.90;;;;;;4993073;28;20367;-69
2021/11/05 06:44:48;;;;;;;14.55;10.75;;;6.00;99.90;;;;;;4995291;28;20112;-70
2021/11/05 06:47:14;;;;;;;12.13;7.88;;;6.00;99.90;;;;;;4998752;28;20026;-70
2021/11/05 06:49:41;;;;;;;11.32;8.23;;;6.00;99.90;;;;;;4992979;28;20023;-70
2021/11/05 06:52:07;;;;;;;11.70;8.32;;;6.00;99.90;;;;;;4975525;28;20084;-70
2021/11/05 06:54:34;;;;;;;14.23;8.75;;;6.00;99.90;;;;;;5005358;28;20037;-69
2021/11/05 06:57:00;;;;;;;18.73;11.23;;;6.10;99.90;;;;;;4991155;28;20035;-70
2021/11/05 06:59:26;;;;;;;15.90;11.05;;;6.10;99.90;;;;;;5004827;28;20037;-69
2021/11/05 07:01:52;;;;;;;14.65;9.55;;;6.10;99.90;;;;;;5000271;28;20494;-69
2021/11/05 07:04:18;;;;;;;13.55;9.38;;;6.00;99.90;;;;;;4992804;28;20029;-70
2021/11/05 07:06:46;;;;;;;12.40;8.70;;;6.10;99.90;;;;;;4977328;28;20034;-70
2021/11/05 07:09:14;;;;;;;11.88;8.55;;;6.10;99.90;;;;;;4992860;28;20405;-69
2021/11/05 07:11:40;;;;;;;13.27;8.55;;;6.10;99.90;;;;;;4991526;28;20032;-68
2021/11/05 07:14:05;;;;;;;13.65;8.77;;;6.10;99.90;;;;;;4994342;28;20381;-67
2021/11/05 07:16:33;;;;;;;13.70;8.88;;;6.10;99.90;;;;;;4985729;28;20114;-73
2021/11/05 07:18:59;;;;;;;13.32;9.63;;;6.10;99.90;;;;;;4974666;28;20030;-72
2021/11/05 07:21:25;;;;;;;13.52;9.02;;;6.00;99.90;;;;;;4974855;28;20496;-71
2021/11/05 07:23:51;;;;;;;13.10;9.20;;;6.10;99.90;;;;;;4985282;28;20113;-75
2021/11/05 07:26:17;;;;;;;13.73;8.52;;;6.10;99.90;;;;;;4983572;28;20114;-74
2021/11/05 07:28:43;;;;;;;11.93;8.38;;;6.10;99.90;;;;;;4989848;28;20069;-72
2021/11/05 07:31:09;;;;;;;13.10;8.63;;;6.10;99.90;;;;;;4991675;28;20035;-73
2021/11/05 07:33:35;;;;;;;11.55;8.68;;;6.10;99.90;;;;;;4983540;28;20367;-73
2021/11/05 07:36:00;;;;;;;12.07;8.07;;;6.10;99.90;;;;;;4988493;28;20033;-72
2021/11/05 07:38:26;;;;;;;13.48;8.65;;;6.20;99.90;;;;;;4974793;28;20102;-74
2021/11/05 07:40:52;;;;;;;13.60;9.27;;;6.20;99.90;;;;;;4962428;28;20854;-73
2021/11/05 07:43:17;;;;;;;14.00;10.00;;;6.20;99.90;;;;;;4990119;28;20077;-73
2021/11/05 07:45:43;;;;;;;15.48;9.88;;;6.20;99.90;;;;;;4990218;28;20106;-74
2021/11/05 07:48:09;;;;;;;11.93;8.68;;;6.20;99.90;;;;;;4991071;28;20501;-70
2021/11/05 07:50:34;;;;;;;14.48;8.95;;;6.30;99.90;;;;;;4991768;28;20035;-72
2021/11/05 07:53:04;;;;;;;14.38;8.75;;;6.30;99.90;;;;;;4972195;28;20030;-74
2021/11/05 07:55:31;;;;;;;13.23;9.27;;;6.30;99.90;;;;;;4990120;28;20142;-72
2021/11/05 07:57:57;;;;;;;10.38;8.00;;;6.30;99.90;;;;;;4990038;28;20076;-72
2021/11/05 08:00:23;;;;;;;11.38;8.20;;;6.30;99.90;;;;;;4991112;28;20085;-72
2021/11/05 08:02:49;;;;;;;13.20;8.32;;;6.40;99.90;;;;;;4972935;28;20049;-72
2021/11/05 08:05:14;;;;;;;13.80;9.60;;;6.40;99.90;;;;;;4991266;28;20470;-72
2021/11/05 08:07:41;;;;;;;12.80;8.68;;;6.40;99.90;;;;;;4991441;28;20097;-72
2021/11/05 08:10:07;;;;;;;11.80;8.63;;;6.40;99.90;;;;;;4991079;28;20038;-71
2021/11/05 08:12:33;;;;;;;16.45;9.35;;;6.40;99.90;;;;;;4990267;28;20027;-72
2021/11/05 08:15:01;;;;;;;14.40;9.48;;;6.40;99.90;;;;;;4984722;28;20354;-71
2021/11/05 08:17:26;;;;;;;11.90;8.23;;;6.40;99.90;;;;;;4988954;28;20038;-72
2021/11/05 08:19:52;;;;;;;14.55;9.10;;;6.40;99.90;;;;;;4973969;28;20030;-72
2021/11/05 08:22:19;;;;;;;13.20;8.73;;;6.40;99.90;;;;;;4990909;28;20030;-72
2021/11/05 08:24:46;;;;;;;12.10;9.15;;;6.50;99.90;;;;;;4989915;28;20030;-71
2021/11/05 08:27:13;;;;;;;11.55;8.48;;;6.50;99.90;;;;;;4990671;28;20058;-71
2021/11/05 08:29:38;;;;;;;18.48;12.00;;;6.50;99.90;;;;;;4978433;28;20771;-72
2021/11/05 08:32:04;;;;;;;11.77;9.18;;;6.50;99.90;;;;;;4988523;28;20121;-71
2021/11/05 08:34:30;;;;;;;12.15;8.50;;;6.50;99.90;;;;;;4966921;28;20492;-71
2021/11/05 08:36:56;;;;;;;12.60;8.65;;;6.60;99.90;;;;;;4989482;28;20093;-72
2021/11/05 08:39:22;;;;;;;12.15;8.65;;;6.60;99.90;;;;;;4973635;28;20647;-72
2021/11/05 08:41:47;;;;;;;11.95;8.68;;;6.60;99.90;;;;;;4991517;28;20046;-72
2021/11/05 08:44:14;;;;;;;12.00;8.80;;;6.60;99.90;;;;;;4990494;28;20475;-72
2021/11/05 08:46:40;;;;;;;12.63;9.32;;;6.60;99.90;;;;;;4973671;28;20479;-72
2021/11/05 08:49:11;;;;;;;12.73;8.70;;;6.70;99.90;;;;;;4994775;28;20034;-72
2021/11/05 08:51:41;;;;;;;16.65;9.90;;;6.70;99.90;;;;;;4994894;28;20030;-71
2021/11/05 08:54:07;;;;;;;13.38;9.10;;;6.70;99.90;;;;;;4991315;28;20465;-72
2021/11/05 08:56:32;;;;;;;14.23;10.00;;;6.70;99.90;;;;;;4986763;28;20031;-72
2021/11/05 08:58:59;;;;;;;13.88;9.80;;;6.70;99.90;;;;;;4988962;28;20066;-72
2021/11/05 09:01:24;;;;;;;13.57;9.20;;;6.70;99.90;;;;;;4985810;28;20054;-73
2021/11/05 09:03:50;;;;;;;12.60;9.73;;;6.70;99.90;;;;;;4977065;28;20112;-72
2021/11/05 09:06:16;;;;;;;10.35;7.80;;;6.80;99.90;;;;;;4994592;28;20027;-72
2021/11/05 09:08:43;;;;;;;13.90;9.15;;;6.80;99.90;;;;;;4995024;28;20027;-73
2021/11/05 09:11:09;;;;;;;11.82;9.10;;;6.80;99.90;;;;;;4977311;28;20018;-74
2021/11/05 09:13:35;;;;;;;11.77;8.32;;;6.80;99.90;;;;;;4993956;28;20037;-72
2021/11/05 09:16:05;;;;;;;11.98;8.88;;;6.80;99.90;;;;;;4994777;28;20712;-72
2021/11/05 09:18:31;;;;;;;12.32;9.45;;;6.80;99.90;;;;;;4994806;28;20102;-72
2021/11/05 09:20:57;;;;;;;12.73;9.05;;;6.90;99.90;;;;;;4994994;28;20109;-75
2021/11/05 09:23:24;;;;;;;13.23;9.52;;;6.90;99.90;;;;;;4993959;28;20022;-72
2021/11/05 09:25:51;;;;;;;14.40;10.43;;;6.90;99.90;;;;;;4994408;28;20027;-73
2021/11/05 09:28:17;;;;;;;13.45;8.95;;;7.00;99.90;;;;;;4976673;28;20026;-73
2021/11/05 09:30:43;;;;;;;12.57;8.55;;;7.00;99.90;;;;;;4994791;28;20062;-73
2021/11/05 09:33:08;;;;;;;9.98;8.45;;;7.00;99.90;;;;;;4993756;28;20073;-73
2021/11/05 09:35:36;;;;;;;9.75;7.90;;;7.00;99.90;;;;;;4994211;28;20046;-74
2021/11/05 09:38:02;;;;;;;9.20;7.65;;;7.10;99.90;;;;;;4994400;28;20098;-72
2021/11/05 09:40:29;;;;;;;8.48;7.05;;;7.10;99.90;;;;;;4994108;28;20386;-72
2021/11/05 09:42:57;;;;;;;8.90;7.70;;;7.10;99.90;;;;;;4993683;28;20084;-73
2021/11/05 09:45:25;;;;;;;9.68;7.63;;;7.20;99.90;;;;;;4993982;28;20026;-73
2021/11/05 09:47:51;;;;;;;10.23;7.95;;;7.20;99.90;;;;;;4994223;28;20015;-72
2021/11/05 09:50:21;;;;;;;9.60;7.93;;;7.20;99.90;;;;;;4976965;28;20039;-73
2021/11/05 09:52:47;;;;;;;8.40;6.70;;;7.30;99.90;;;;;;4993622;28;20387;-73
2021/11/05 09:55:15;;;;;;;10.60;8.63;;;7.30;99.90;;;;;;4993904;28;20030;-72
2021/11/05 09:57:41;;;;;;;10.48;7.82;;;7.30;99.90;;;;;;4987979;28;20019;-74
2021/11/05 10:00:09;;;;;;;10.23;7.57;;;7.30;99.90;;;;;;4994271;28;20038;-74
2021/11/05 10:02:35;;;;;;;9.35;7.53;;;7.40;99.90;;;;;;4993048;28;20022;-73
2021/11/05 10:05:02;;;;;;;7.53;6.20;;;7.40;99.90;;;;;;4993687;28;20088;-74
2021/11/05 10:07:28;;;;;;;8.32;6.85;;;7.50;99.90;;;;;;4994262;28;20033;-72
2021/11/05 10:09:55;;;;;;;8.95;7.22;;;7.50;99.90;;;;;;4993570;28;20335;-72
2021/11/05 10:12:27;;;;;;;8.80;7.05;;;7.50;99.90;;;;;;4994055;28;20038;-73
2021/11/05 10:14:59;;;;;;;8.77;6.97;;;7.50;99.90;;;;;;4992775;28;20410;-74
2021/11/05 10:17:25;;;;;;;8.98;6.97;;;7.60;99.90;;;;;;4994068;28;20025;-74
2021/11/05 10:19:56;;;;;;;8.00;6.78;;;7.60;99.90;;;;;;4976267;28;20418;-72
2021/11/05 10:22:52;;;;;;;8.18;6.47;;;7.70;99.90;;;;;;4993936;28;20034;-72
2021/11/05 10:25:30;;;;;;;9.05;6.93;;;7.70;99.90;;;;;;4992267;28;20023;-73
2021/11/05 10:28:19;;;;;;;9.80;6.43;;;7.80;99.90;;;;;;4989659;28;20018;-72
2021/11/05 10:30:44;;;;;;;9.50;7.13;;;7.80;99.90;;;;;;4974024;28;20647;-73
2021/11/05 10:33:12;;;;;;;8.95;7.07;;;7.90;99.90;;;;;;4985886;28;20049;-73
2021/11/05 10:35:40;;;;;;;9.63;7.88;;;7.90;99.90;;;;;;4992702;28;20030;-74
2021/11/05 10:38:10;;;;;;;8.88;7.38;;;7.90;99.90;;;;;;4974878;28;20116;-72
2021/11/05 10:40:53;;;;;;;9.07;7.53;;;7.90;99.90;;;;;;4975969;28;20026;-73
2021/11/05 10:43:41;;;;;;;8.40;6.72;;;7.90;99.90;;;;;;4992818;28;20157;-72
2021/11/05 10:46:29;;;;;;;9.10;7.68;;;8.00;99.90;;;;;;4973307;28;20053;-75
2021/11/05 10:48:57;;;;;;;9.00;7.63;;;8.00;99.90;;;;;;4990156;28;20061;-73
2021/11/05 10:51:25;;;;;;;9.57;7.97;;;8.00;99.90;;;;;;4993007;28;20034;-72
2021/11/05 10:53:51;;;;;;;8.95;7.93;;;8.10;99.90;;;;;;4973314;28;20034;-72
2021/11/05 10:56:19;;;;;;;9.50;7.70;;;8.00;99.90;;;;;;4993287;28;20026;-73
2021/11/05 10:58:58;;;;;;;10.55;8.15;;;8.00;99.90;;;;;;4990859;28;20026;-73
2021/11/05 11:01:26;;;;;;;15.73;11.15;;;8.10;99.90;;;;;;4971917;28;20033;-73
2021/11/05 11:03:57;;;;;;;15.10;11.15;;;8.10;99.90;;;;;;4991917;28;20023;-73
2021/11/05 11:06:34;;;;;;;11.13;8.50;;;8.00;99.90;;;;;;4991874;28;20053;-72
2021/11/05 11:09:05;;;;;;;11.02;8.45;;;8.00;99.80;;;;;;4992717;28;20023;-72
2021/11/05 11:11:32;;;;;;;8.95;7.45;;;8.10;99.90;;;;;;4991855;28;20034;-74
2021/11/05 11:14:03;;;;;;;11.70;9.50;;;8.10;99.90;;;;;;5012472;23;20046;-72
2021/11/05 11:16:31;;;;;;;11.70;9.82;;;8.20;99.70;;;;;;5003697;28;20022;-73
2021/11/05 11:19:09;;;;;;;10.63;8.55;;;8.10;99.70;;;;;;5012437;28;20484;-74
2021/11/05 11:21:45;;;;;;;8.68;7.05;;;8.10;99.60;;;;;;4994066;28;20106;-73
2021/11/05 11:24:17;;;;;;;8.02;6.65;;;8.20;99.70;;;;;;4993961;28;20072;-73
2021/11/05 11:26:44;;;;;;;27.23;18.83;;;8.20;99.70;;;;;;5003693;28;20022;-73
2021/11/05 11:29:11;;;;;;;7.88;6.90;;;8.20;99.60;;;;;;4979837;28;20026;-73
2021/11/05 11:31:39;;;;;;;8.88;7.97;;;8.20;99.50;;;;;;4994236;28;20027;-73
2021/11/05 11:34:07;;;;;;;8.82;7.32;;;8.20;99.50;;;;;;4991488;28;20026;-73
2021/11/05 11:36:36;;;;;;;9.00;7.22;;;8.20;99.60;;;;;;4990506;28;20021;-74
2021/11/05 11:39:06;;;;;;;8.70;7.75;;;8.20;99.60;;;;;;5011052;28;20103;-73
2021/11/05 11:41:33;;;;;;;7.70;6.63;;;8.20;99.60;;;;;;5006501;28;20022;-72
2021/11/05 11:44:02;;;;;;;7.60;5.80;;;8.30;99.60;;;;;;5011120;28;20025;-72
2021/11/05 11:46:28;;;;;;;6.70;6.00;;;8.30;99.40;;;;;;4992627;28;20034;-73
2021/11/05 11:48:56;;;;;;;7.63;6.57;;;8.20;99.30;;;;;;5005097;28;20040;-72
2021/11/05 11:51:32;;;;;;;7.38;5.78;;;8.30;99.20;;;;;;5011811;28;20548;-73
2021/11/05 11:54:16;;;;;;;9.32;6.55;;;8.20;99.20;;;;;;4993619;28;20022;-72
2021/11/05 11:56:42;;;;;;;7.05;6.35;;;8.30;99.20;;;;;;5011287;28;20024;-72
2021/11/05 11:59:11;;;;;;;7.43;6.20;;;8.30;99.20;;;;;;4989991;28;20061;-72
2021/11/05 12:01:40;;;;;;;8.20;6.32;;;8.30;99.20;;;;;;5004519;28;20533;-72
2021/11/05 12:04:15;;;;;;;9.60;6.07;;;8.30;99.30;;;;;;4999456;28;20408;-73
2021/11/05 12:06:47;;;;;;;7.70;6.80;;;8.40;99.30;;;;;;4993615;28;20393;-72
2021/11/05 12:09:31;;;;;;;10.45;7.18;;;8.40;99.30;;;;;;5011325;28;20037;-73
2021/11/05 12:12:21;;;;;;;8.23;6.47;;;8.30;99.10;;;;;;4993886;28;20095;-72
2021/11/05 12:15:01;;;;;;;7.75;6.68;;;8.30;99.10;;;;;;4992602;28;20116;-73
2021/11/05 12:17:48;;;;;;;8.68;7.05;;;8.30;99.10;;;;;;4993607;28;20026;-72
2021/11/05 12:20:32;;;;;;;7.10;6.07;;;8.30;99.10;;;;;;4993456;28;20038;-72
2021/11/05 12:23:11;;;;;;;7.38;6.50;;;8.30;99.10;;;;;;5004386;28;20470;-73
2021/11/05 12:26:00;;;;;;;7.90;6.28;;;8.30;99.20;;;;;;4993304;28;20037;-73
2021/11/05 12:28:41;;;;;;;8.57;6.88;;;8.40;99.20;;;;;;4999162;28;20038;-73
2021/11/05 12:31:29;;;;;;;7.63;6.38;;;8.40;99.20;;;;;;4992006;28;20030;-72
2021/11/05 12:33:56;;;;;;;9.57;7.15;;;8.40;99.00;;;;;;5007013;28;20076;-73
2021/11/05 12:36:49;;;;;;;11.27;7.82;;;8.40;99.10;;;;;;5010490;28;20378;-73
2021/11/05 12:39:15;;;;;;;10.43;7.60;;;8.40;99.10;;;;;;4993653;28;20029;-73
2021/11/05 12:42:00;;;;;;;10.85;8.13;;;8.40;99.10;;;;;;5011742;28;20030;-72
2021/11/05 12:44:28;;;;;;;13.02;8.55;;;8.50;99.10;;;;;;5010069;28;20030;-73
2021/11/05 12:46:54;;;;;;;10.35;7.75;;;8.50;99.10;;;;;;4993197;28;20033;-73
2021/11/05 12:49:21;;;;;;;8.52;7.38;;;8.50;99.10;;;;;;4993184;28;20068;-73
2021/11/05 12:51:50;;;;;;;9.05;7.40;;;8.60;99.10;;;;;;5010835;28;20018;-73
2021/11/05 12:54:24;;;;;;;45.05;26.05;;;8.60;99.10;;;;;;4992161;28;20033;-73
2021/11/05 12:56:56;;;;;;;12.30;10.05;;;8.70;99.20;;;;;;5000795;28;20030;-73